Flight Track Log - Related Links

Times and Time Zones

All times are in EDT time to prevent confusion due to time zone crossing. See the RPA3396 flight status page for this flight to view local times or setup timezone preferences in your user account.

Time Position Orientation Groundspeed Altitude Reporting Facility
EDT Latitude Longitude Course Direction KTS MPH feet Rate Location/Type
Mon 05:21:25 PM 38.8833 -77.0667 322° Northwest 162 186 1,700  Level Potomac TRACON
Mon 05:22:25 PM 38.9333 -77.1167 322° Northwest 251 289 3,800 2,842 Climbing Potomac TRACON
Mon 05:23:19 PM 38.9667 -77.1833 303° West 262 302 7,100 3,443 Climbing Potomac TRACON
Mon 05:24:20 PM 39.0000 -77.2667 297° West 268 308 10,400 2,281 Climbing Potomac TRACON
Mon 05:25:20 PM 39.0333 -77.3667 293° West 332 382 11,700 2,231 Climbing Potomac TRACON
Mon 05:26:21 PM 39.0667 -77.4833 290° West 347 399 14,900 2,628 Climbing Potomac TRACON
Mon 05:27:21 PM 39.1167 -77.5667 308° West 330 380 17,000 1,105 Climbing Potomac TRACON
Mon 05:28:15 PM 39.2000 -77.5833 351° North 351 404 17,000 30 Level Potomac TRACON
Mon 05:30:41 PM 39.4356 -77.5317 10° North 356 410 17,100 29 Climbing Washington Center
Mon 05:31:41 PM 39.5300 -77.4858 21° North 356 410 17,100 833 Level Washington Center
Mon 05:33:41 PM 39.7136 -77.4536 North 334 384 19,600 994 Climbing New York Center
Mon 05:34:42 PM 39.8200 -77.4528 360° North 355 409 20,100 694 Climbing New York Center
Mon 05:35:42 PM 39.9389 -77.4506 North 382 440 21,000 458 Climbing New York Center
Mon 05:36:40 PM 40.0603 -77.4458 North 420 483 21,000  Level New York Center
Mon 05:37:40 PM 40.1781 -77.4272 North 433 498 21,000  Level New York Center
Mon 05:38:40 PM 40.2831 -77.3747 21° North 442 509 21,000 99 Level New York Center
Mon 05:39:41 PM 40.3978 -77.4103 347° North 419 482 21,200 1,131 Climbing New York Center
Mon 05:40:42 PM 40.5203 -77.4219 356° North 424 488 23,300 1,983 Climbing New York Center
Mon 05:41:39 PM 40.6344 -77.4303 357° North 419 482 25,100 1,525 Climbing New York Center
Mon 05:42:40 PM 40.7533 -77.3900 14° North 426 490 26,300 1,140 Climbing New York Center
Mon 05:43:40 PM 40.8517 -77.2731 42° Northeast 441 507 27,400 1,041 Climbing New York Center
Mon 05:44:41 PM 40.9497 -77.1533 43° Northeast 460 529 28,400 807 Climbing New York Center
Mon 05:45:39 PM 41.0522 -77.0281 43° Northeast 479 551 29,000 303 Climbing New York Center
Mon 05:46:40 PM 41.1633 -76.8978 41° Northeast 507 583 29,000  Level New York Center
Mon 05:47:42 PM 41.2892 -76.8014 30° Northeast 520 598 29,000  Level New York Center
Mon 05:48:39 PM 41.4147 -76.7047 30° Northeast 520 598 29,000  Level New York Center
Mon 05:49:40 PM 41.5533 -76.5978 30° Northeast 525 604 29,000  Level New York Center
Mon 05:50:40 PM 41.6808 -76.5033 29° Northeast 525 604 29,000  Level New York Center
Mon 05:51:41 PM 41.7933 -76.4186 29° Northeast 525 604 29,000 -789 Level New York Center
Mon 05:53:35 PM 42.0389 -76.2283 30° Northeast 511 588 26,700 -1,483 Descending Boston Center
Mon 05:54:35 PM 42.1572 -76.1206 34° Northeast 506 582 24,700 -1,361 Descending Boston Center
Mon 05:55:34 PM 42.2250 -75.9561 61° Northeast 486 559 24,000 -350 Descending Boston Center
Mon 05:56:35 PM 42.2844 -75.7800 65° Northeast 486 559 24,000  Level Boston Center
Mon 05:57:35 PM 42.3461 -75.5950 66° East 486 559 24,000  Level Boston Center
Mon 05:58:35 PM 42.4008 -75.4178 67° East 498 573 24,000  Level Boston Center
Mon 05:59:35 PM 42.4142 -75.2300 84° East 498 573 24,000 -1,250 Level Boston Center
Mon 06:00:35 PM 42.4269 -75.0419 85° East 498 573 21,500 -2,571 Descending Boston Center
Mon 06:00:52 PM 42.4303 -74.9858 85° East 507 583 20,700 -3,077 Descending Boston Center
Mon 06:01:53 PM 42.4422 -74.8175 84° East 449 517 17,500 -3,087 Descending Boston Center
Mon 06:02:35 PM 42.4508 -74.6997 84° East 463 533 15,400 -3,100 Descending Boston Center
Mon 06:02:53 PM 42.4517 -74.6547 89° East 422 486 14,400 -2,600 Descending Boston Center
Mon 06:03:35 PM 42.4578 -74.5592 85° East 422 486 12,800 -2,471 Descending Boston Center
Mon 06:04:35 PM 42.4689 -74.4047 84° East 389 448 10,200 -2,025 Descending Boston Center
Mon 06:04:55 PM 42.4758 -74.3683 75° East 363 418 10,100 -500 Descending Boston Center
Mon 06:05:35 PM 42.4853 -74.2925 80° East 352 405 9,700 -1,300 Descending Boston Center
Mon 06:05:55 PM 42.4925 -74.2394 80° East 307 353 8,800 -2,100 Descending Boston Center
Mon 06:06:35 PM 42.5039 -74.1664 78° East 317 365 7,600 -1,740 Descending Boston Center
Mon 06:07:35 PM 42.5181 -74.0683 79° East 297 342 5,900 -1,750 Descending Boston Center
Mon 06:08:35 PM 42.5342 -73.9531 79° East 291 335 4,100 -1,200 Descending Boston Center
Mon 06:09:35 PM 42.5561 -73.8719 70° East 266 306 3,500 -600 Descending Boston Center

Login

Don't have an account? Register now (free) for customized features, flight alerts, and more!